Time;durP1;ratioP1;P1;durP2;ratioP2;P2;SDS_P1;SDS_P2;PMS_P1;PMS_P2;Temp;Humidity;BMP_temperature;BMP_pressure;BME280_temperature;BME280_humidity;BME280_pressure;Samples;Min_cycle;Max_cycle;Signal;HPM_P1;HPM_P2
2023/06/12 00:01:12;;;;;;;;;;;;;;;23.62;43.26;95536.75;10302696;28;1946;-64
2023/06/12 00:06:14;;;;;;;;;;;;;;;23.59;43.17;95526.75;10303205;28;2072;-64
2023/06/12 00:11:16;;;;;;;;;;;;;;;23.60;43.23;95525.66;10297725;28;1903;-64
2023/06/12 00:16:17;;;;;;;;;;;;;;;23.60;43.15;95520.38;10300362;28;2372;-64
2023/06/12 00:21:17;;;;;;;;;;;;;;;23.61;43.02;95521.97;10304632;28;1973;-65
2023/06/12 00:26:17;;;;;;;;;;;;;;;23.60;42.87;95525.66;10301830;28;1940;-64
2023/06/12 00:31:18;;;;;;;;;;;;;;;23.60;43.06;95520.38;10308041;28;1954;-64
2023/06/12 00:36:18;;;;;;;;;;;;;;;23.59;42.96;95523.34;10307649;28;1934;-64
2023/06/12 00:41:18;;;;;;;;;;;;;;;23.60;42.80;95509.78;10306694;28;4862;-64
2023/06/12 00:46:18;;;;;;;;;;;;;;;23.59;43.02;95510.88;10306947;28;2026;-64
2023/06/12 00:51:20;;;;;;;;;;;;;;;23.58;42.95;95516.47;10309241;28;2232;-64
2023/06/12 00:56:20;;;;;;;;;;;;;;;23.57;43.03;95513.06;10304400;28;1937;-64
2023/06/12 01:01:25;;;;;;;;;;;;;;;23.58;43.00;95511.16;10306694;28;1943;-64
2023/06/12 01:06:38;;;;;;;;;;;;;;;23.57;43.09;95509.63;10310424;28;1984;-64
2023/06/12 01:11:39;;;;;;;;;;;;;;;23.58;42.65;95508.53;10306402;28;2214;-64
2023/06/12 01:16:40;;;;;;;;;;;;;;;23.56;42.93;95514.13;10306428;28;2011;-64
2023/06/12 01:21:40;;;;;;;;;;;;;;;23.56;42.71;95513.31;10303728;28;1983;-64
2023/06/12 01:26:45;;;;;;;;;;;;;;;23.55;43.00;95511.78;10295333;28;1987;-64
2023/06/12 01:31:50;;;;;;;;;;;;;;;23.56;42.75;95514.13;10293875;28;2062;-64
2023/06/12 01:36:55;;;;;;;;;;;;;;;23.54;42.81;95521.56;10306252;28;1936;-64
2023/06/12 01:41:55;;;;;;;;;;;;;;;23.54;42.70;95515.50;10306985;28;4734;-64
2023/06/12 01:46:55;;;;;;;;;;;;;;;23.52;42.85;95512.34;10305752;28;2014;-64
2023/06/12 01:51:56;;;;;;;;;;;;;;;23.51;42.54;95506.31;10311932;28;2001;-62
2023/06/12 01:56:57;;;;;;;;;;;;;;;23.52;42.91;95502.56;10306239;28;2225;-63
2023/06/12 02:01:57;;;;;;;;;;;;;;;23.51;42.48;95500.22;10311420;28;1915;-62
2023/06/12 02:06:58;;;;;;;;;;;;;;;23.51;42.71;95493.09;10303734;28;1997;-64
2023/06/12 02:12:00;;;;;;;;;;;;;;;23.50;42.55;95499.44;10294951;28;2066;-64
2023/06/12 02:17:02;;;;;;;;;;;;;;;23.51;42.70;95501.00;10310126;28;1979;-64
2023/06/12 02:22:02;;;;;;;;;;;;;;;23.49;42.46;95503.19;10303615;28;2005;-63
2023/06/12 02:27:03;;;;;;;;;;;;;;;23.50;42.66;95512.66;10294970;28;2175;-64
2023/06/12 02:32:03;;;;;;;;;;;;;;;23.49;42.59;95508.47;10303719;28;1976;-64
2023/06/12 02:37:08;;;;;;;;;;;;;;;23.48;42.51;95498.94;10303113;28;2232;-64
2023/06/12 02:42:08;;;;;;;;;;;;;;;23.49;42.60;95497.09;10300446;28;4777;-63
2023/06/12 02:47:09;;;;;;;;;;;;;;;23.48;42.67;95493.66;10304159;28;1963;-64
2023/06/12 02:52:09;;;;;;;;;;;;;;;23.47;42.48;95499.25;10303218;28;1987;-64
2023/06/12 02:57:10;;;;;;;;;;;;;;;23.45;42.44;95502.97;10298502;28;2002;-64
2023/06/12 03:02:10;;;;;;;;;;;;;;;23.45;42.44;95500.31;10302642;28;2223;-64
2023/06/12 03:07:12;;;;;;;;;;;;;;;23.44;42.68;95506.72;10306848;28;1965;-64
2023/06/12 03:12:12;;;;;;;;;;;;;;;23.44;42.66;95506.72;10310132;28;1964;-64
2023/06/12 03:17:12;;;;;;;;;;;;;;;23.43;42.63;95510.41;10301983;28;2023;-66
2023/06/12 03:22:13;;;;;;;;;;;;;;;23.44;42.39;95511.22;10304193;28;2132;-64
2023/06/12 03:27:14;;;;;;;;;;;;;;;23.43;42.53;95510.41;10300951;28;2137;-64
2023/06/12 03:32:14;;;;;;;;;;;;;;;23.43;42.46;95512.31;10306040;28;2085;-64
2023/06/12 03:37:14;;;;;;;;;;;;;;;23.42;42.25;95513.38;10303760;28;2016;-64
2023/06/12 03:42:15;;;;;;;;;;;;;;;23.42;42.38;95523.94;10300315;28;4681;-64
2023/06/12 03:47:15;;;;;;;;;;;;;;;23.41;42.33;95525.81;10306493;28;2050;-64
2023/06/12 03:52:16;;;;;;;;;;;;;;;23.41;42.57;95528.44;10300478;28;2295;-64
2023/06/12 03:57:16;;;;;;;;;;;;;;;23.40;42.35;95523.47;10307536;28;2266;-63
2023/06/12 04:02:16;;;;;;;;;;;;;;;23.41;42.27;95531.09;10305798;28;2121;-63
2023/06/12 04:07:16;;;;;;;;;;;;;;;23.42;42.29;95523.94;10306069;28;1963;-64
2023/06/12 04:12:17;;;;;;;;;;;;;;;23.43;42.25;95528.19;10297131;28;1980;-64
2023/06/12 04:17:17;;;;;;;;;;;;;;;23.44;42.43;95529.72;10299391;28;2060;-63
2023/06/12 04:22:17;;;;;;;;;;;;;;;23.43;42.48;95526.28;10298600;28;1964;-64
2023/06/12 04:27:18;;;;;;;;;;;;;;;23.43;42.50;95528.19;10303428;28;2109;-63
2023/06/12 04:32:18;;;;;;;;;;;;;;;23.43;42.39;95526.28;10304706;28;1954;-63
2023/06/12 04:37:19;;;;;;;;;;;;;;;23.42;42.74;95534.53;10296457;28;2011;-63
2023/06/12 04:42:20;;;;;;;;;;;;;;;23.43;42.55;95536.13;10299479;28;4663;-62
2023/06/12 04:47:20;;;;;;;;;;;;;;;23.44;42.56;95529.72;10300464;28;2005;-63
2023/06/12 04:52:22;;;;;;;;;;;;;;;23.42;42.55;95531.88;10299973;28;1988;-65
2023/06/12 04:57:23;;;;;;;;;;;;;;;23.45;42.92;95529.44;10298595;28;2216;-65
2023/06/12 05:02:23;;;;;;;;;;;;;;;23.46;42.74;95530.22;10287295;28;2043;-64
2023/06/12 05:07:24;;;;;;;;;;;;;;;23.46;42.72;95538.16;10302816;28;2218;-62
2023/06/12 05:12:25;;;;;;;;;;;;;;;23.45;42.88;95537.34;10298283;28;2004;-63
2023/06/12 05:17:26;;;;;;;;;;;;;;;23.46;42.95;95540.78;10291053;28;2033;-64
2023/06/12 05:22:27;;;;;;;;;;;;;;;23.47;42.93;95547.66;10312504;28;1942;-65
2023/06/12 05:27:27;;;;;;;;;;;;;;;23.47;43.02;95539.72;10309193;28;1914;-65
2023/06/12 05:32:27;;;;;;;;;;;;;;;23.47;42.89;95539.72;10307497;28;1984;-63
2023/06/12 05:37:27;;;;;;;;;;;;;;;23.48;42.89;95538.63;10307475;28;1919;-63
2023/06/12 05:42:27;;;;;;;;;;;;;;;23.48;43.01;95536.00;10300012;28;1978;-63
2023/06/12 05:47:28;;;;;;;;;;;;;;;23.49;42.92;95534.94;10309939;28;1907;-62
2023/06/12 05:52:28;;;;;;;;;;;;;;;23.49;43.08;95534.94;10304232;28;1867;-63
2023/06/12 05:57:28;;;;;;;;;;;;;;;23.49;43.14;95556.09;10308850;28;1862;-61
2023/06/12 06:02:29;;;;;;;;;;;;;;;23.49;43.11;95542.88;10306078;28;1914;-62
2023/06/12 06:07:30;;;;;;;;;;;;;;;23.50;43.09;95556.84;10308925;28;1903;-60
2023/06/12 06:12:30;;;;;;;;;;;;;;;23.50;42.92;95552.34;10308925;28;1890;-66
2023/06/12 06:17:30;;;;;;;;;;;;;;;23.51;42.96;95559.22;10304371;28;1878;-64
2023/06/12 06:22:31;;;;;;;;;;;;;;;23.52;43.10;95565.28;10305222;28;2038;-65
2023/06/12 06:27:31;;;;;;;;;;;;;;;23.53;43.04;95557.06;10306898;28;1950;-65
2023/06/12 06:32:32;;;;;;;;;;;;;;;23.53;43.05;95575.59;10309814;28;1914;-66
2023/06/12 06:37:32;;;;;;;;;;;;;;;23.54;43.37;95573.69;10295773;28;1942;-67
2023/06/12 06:42:32;;;;;;;;;;;;;;;23.55;43.37;95578.72;10296991;28;4675;-68
2023/06/12 06:47:33;;;;;;;;;;;;;;;23.56;43.37;95572.31;10302970;28;2375;-66
2023/06/12 06:52:33;;;;;;;;;;;;;;;23.58;43.45;95578.09;10296259;28;2104;-67
2023/06/12 06:57:34;;;;;;;;;;;;;;;23.58;43.85;95575.47;10295855;28;1998;-68
2023/06/12 07:02:34;;;;;;;;;;;;;;;23.60;43.73;95583.88;10292625;28;2042;-68
2023/06/12 07:07:35;;;;;;;;;;;;;;;23.62;43.85;95568.50;10292082;28;1865;-67
2023/06/12 07:12:35;;;;;;;;;;;;;;;23.62;43.53;95573.78;10295283;28;1869;-67
2023/06/12 07:17:35;;;;;;;;;;;;;;;23.63;43.45;95571.94;10294370;28;1974;-68
2023/06/12 07:22:35;;;;;;;;;;;;;;;23.64;43.63;95573.50;10295190;28;1985;-69
2023/06/12 07:27:36;;;;;;;;;;;;;;;23.65;43.68;95575.84;10293030;28;1882;-67
2023/06/12 07:32:36;;;;;;;;;;;;;;;23.64;43.55;95576.91;10295095;28;1946;-67
2023/06/12 07:37:37;;;;;;;;;;;;;;;23.65;43.84;95577.72;10290598;28;1907;-68
2023/06/12 07:42:37;;;;;;;;;;;;;;;23.66;43.73;95576.66;10295017;28;4674;-68
2023/06/12 07:47:37;;;;;;;;;;;;;;;23.67;43.59;95571.03;10283734;28;1902;-68
2023/06/12 07:52:37;;;;;;;;;;;;;;;23.65;43.66;95562.63;10291676;28;1930;-67
2023/06/12 07:57:38;;;;;;;;;;;;;;;23.67;43.73;95565.75;10285037;28;1925;-67
2023/06/12 08:02:38;;;;;;;;;;;;;;;23.67;43.63;95555.16;10296941;28;1962;-67
2023/06/12 08:07:39;;;;;;;;;;;;;;;23.67;43.79;95557.03;10287939;28;1882;-67
2023/06/12 08:12:39;;;;;;;;;;;;;;;23.69;43.61;95570.75;10289237;28;1828;-64
2023/06/12 08:17:42;;;;;;;;;;;;;;;23.69;43.61;95565.44;10289876;28;1914;-66
2023/06/12 08:22:42;;;;;;;;;;;;;;;23.70;43.49;95565.16;10290678;28;1914;-66
2023/06/12 08:27:42;;;;;;;;;;;;;;;23.71;43.49;95566.72;10293595;28;1835;-66
2023/06/12 08:32:43;;;;;;;;;;;;;;;23.72;43.49;95567.50;10291215;28;1912;-66
2023/06/12 08:37:43;;;;;;;;;;;;;;;23.71;43.51;95569.38;10293952;28;1883;-65
2023/06/12 08:42:44;;;;;;;;;;;;;;;23.73;43.51;95571.72;10291866;28;4714;-65
2023/06/12 08:47:48;;;;;;;;;;;;;;;23.73;43.70;95572.50;10291435;28;1838;-66
2023/06/12 08:52:49;;;;;;;;;;;;;;;23.73;43.74;95567.22;10302652;28;1878;-67
2023/06/12 08:57:51;;;;;;;;;;;;;;;23.74;43.69;95568.00;10280060;28;1971;-66
2023/06/12 09:02:51;;;;;;;;;;;;;;;23.74;43.36;95568.00;10300346;28;1977;-64
2023/06/12 09:07:52;;;;;;;;;;;;;;;23.74;43.53;95568.75;10280672;28;1907;-64
2023/06/12 09:12:55;;;;;;;;;;;;;;;23.75;43.47;95558.97;10297581;28;1898;-65
2023/06/12 09:17:55;;;;;;;;;;;;;;;23.74;43.83;95563.47;10305481;28;1825;-65
2023/06/12 09:22:56;;;;;;;;;;;;;;;23.76;43.80;95565.84;10306154;28;1906;-65
2023/06/12 09:27:56;;;;;;;;;;;;;;;23.76;43.48;95566.59;10292966;28;1527;-66
2023/06/12 09:32:58;;;;;;;;;;;;;;;23.75;43.88;95565.03;10287983;28;1994;-66
2023/06/12 09:37:59;;;;;;;;;;;;;;;23.77;43.80;95577.97;10295169;28;2268;-64
2023/06/12 09:42:59;;;;;;;;;;;;;;;23.76;43.52;95558.66;10297015;28;4768;-63
2023/06/12 09:47:59;;;;;;;;;;;;;;;23.77;43.73;95557.59;10311452;28;1979;-64
2023/06/12 09:52:59;;;;;;;;;;;;;;;23.78;43.73;95542.50;10299046;28;1874;-65
2023/06/12 09:58:02;;;;;;;;;;;;;;;23.78;43.62;95547.78;10283813;28;2001;-66
2023/06/12 10:03:04;;;;;;;;;;;;;;;23.79;43.54;95549.34;10282001;28;1966;-66
2023/06/12 10:08:05;;;;;;;;;;;;;;;23.79;43.29;95549.34;10297565;28;1997;-65
2023/06/12 10:13:05;;;;;;;;;;;;;;;23.77;43.07;95540.91;10295173;28;1860;-64
2023/06/12 10:18:08;;;;;;;;;;;;;;;23.79;42.77;95541.41;10285042;28;1933;-65
2023/06/12 10:23:08;;;;;;;;;;;;;;;23.79;42.56;95544.06;10296187;28;1962;-64
2023/06/12 10:28:09;;;;;;;;;;;;;;;23.79;42.97;95534.25;10297319;28;1911;-64
2023/06/12 10:33:13;;;;;;;;;;;;;;;23.80;42.89;95535.03;10301189;28;2340;-64
2023/06/12 10:38:13;;;;;;;;;;;;;;;23.78;42.08;95532.66;10295235;28;1966;-64
2023/06/12 10:43:13;;;;;;;;;;;;;;;23.77;42.20;95517.88;10287680;28;4683;-64
2023/06/12 10:48:17;;;;;;;;;;;;;;;23.77;41.96;95523.19;10288722;28;2006;-64
2023/06/12 10:53:23;;;;;;;;;;;;;;;23.76;41.74;95513.66;10304711;28;2093;-64
2023/06/12 10:58:25;;;;;;;;;;;;;;;23.78;42.19;95511.50;10301118;28;1876;-64
2023/06/12 11:03:26;;;;;;;;;;;;;;;23.77;41.45;95504.66;10287419;28;2055;-64
2023/06/12 11:08:26;;;;;;;;;;;;;;;23.79;41.35;95510.44;10297701;28;1983;-65
2023/06/12 11:13:26;;;;;;;;;;;;;;;23.79;41.43;95502.50;10306987;28;1842;-69
2023/06/12 11:18:27;;;;;;;;;;;;;;;23.80;42.02;95498.00;10291707;28;2023;-66
2023/06/12 11:23:27;;;;;;;;;;;;;;;23.80;42.20;95511.97;10299059;28;1922;-68
2023/06/12 11:28:28;;;;;;;;;;;;;;;23.83;42.45;95500.03;10288514;28;2222;-66
2023/06/12 11:33:31;;;;;;;;;;;;;;;23.84;42.60;95488.38;10281162;28;1943;-65
2023/06/12 11:38:32;;;;;;;;;;;;;;;23.84;42.94;95489.16;10298106;28;1830;-63
2023/06/12 11:43:32;;;;;;;;;;;;;;;23.87;42.86;95496.47;10297661;28;5007;-63
2023/06/12 11:48:33;;;;;;;;;;;;;;;23.89;43.23;95493.53;10297084;28;1924;-62
2023/06/12 11:53:33;;;;;;;;;;;;;;;23.89;43.25;95493.53;10299210;28;2069;-64
2023/06/12 11:58:35;;;;;;;;;;;;;;;23.90;42.96;95493.25;10297242;28;1871;-65
2023/06/12 12:03:37;;;;;;;;;;;;;;;23.90;43.31;95487.94;10297941;28;1903;-66
2023/06/12 12:08:37;;;;;;;;;;;;;;;23.90;43.30;95482.66;10277992;28;1903;-66
2023/06/12 12:13:47;;;;;;;;;;;;;;;23.90;43.03;95482.66;10296475;28;1842;-64
2023/06/12 12:18:47;;;;;;;;;;;;;;;23.91;43.19;95472.81;10294334;28;1859;-65
2023/06/12 12:23:47;;;;;;;;;;;;;;;23.93;43.12;95486.53;10294521;28;2241;-65
2023/06/12 12:28:48;;;;;;;;;;;;;;;23.92;42.92;95480.50;10295649;28;1946;-65
2023/06/12 12:33:48;;;;;;;;;;;;;;;23.92;42.80;95485.78;10295517;28;1863;-65
2023/06/12 12:38:48;;;;;;;;;;;;;;;23.92;42.63;95477.84;10294080;28;1964;-67
2023/06/12 12:43:49;;;;;;;;;;;;;;;23.93;42.90;95489.19;10293010;28;4651;-67
2023/06/12 12:48:49;;;;;;;;;;;;;;;23.94;42.83;95477.53;10278738;28;1836;-66
2023/06/12 12:53:50;;;;;;;;;;;;;;;23.94;42.94;95467.72;10294799;28;2078;-65
2023/06/12 12:58:50;;;;;;;;;;;;;;;23.94;43.11;95478.31;10293227;28;1862;-65
2023/06/12 13:03:54;;;;;;;;;;;;;;;23.94;43.08;95472.25;10293347;28;1977;-65
2023/06/12 13:08:54;;;;;;;;;;;;;;;23.94;42.93;95465.09;10292333;28;2017;-64
2023/06/12 13:13:54;;;;;;;;;;;;;;;23.95;42.76;95471.13;10291210;28;1901;-67
2023/06/12 13:18:55;;;;;;;;;;;;;;;23.94;42.47;95454.50;10294268;28;1906;-66
2023/06/12 13:23:55;;;;;;;;;;;;;;;23.93;42.71;95471.44;10290688;28;2261;-65
2023/06/12 13:28:57;;;;;;;;;;;;;;;23.95;42.42;95452.59;10291478;28;1933;-64
2023/06/12 13:33:57;;;;;;;;;;;;;;;23.93;42.27;95454.78;10293637;28;1918;-64
2023/06/12 13:38:57;;;;;;;;;;;;;;;23.93;42.29;95460.84;10299400;28;1907;-63
2023/06/12 13:43:57;;;;;;;;;;;;;;;23.92;42.11;95453.22;10282647;28;4484;-64
2023/06/12 13:48:58;;;;;;;;;;;;;;;23.93;42.15;95458.22;10308436;28;1886;-63
2023/06/12 13:53:58;;;;;;;;;;;;;;;23.92;41.97;95456.66;10304940;28;1869;-63
2023/06/12 13:58:59;;;;;;;;;;;;;;;23.92;41.64;95447.94;10312980;28;1914;-63
2023/06/12 14:04:00;;;;;;;;;;;;;;;23.91;41.78;95457.72;10310265;28;1908;-63
2023/06/12 14:09:00;;;;;;;;;;;;;;;23.91;42.06;95449.78;10305771;28;1938;-63
2023/06/12 14:14:01;;;;;;;;;;;;;;;23.93;42.28;95442.34;10309064;28;1977;-61
2023/06/12 14:19:01;;;;;;;;;;;;;;;23.92;42.32;95443.44;10312181;28;2309;-63
2023/06/12 14:24:03;;;;;;;;;;;;;;;23.94;42.75;95441.25;10304712;28;1907;-63
2023/06/12 14:29:03;;;;;;;;;;;;;;;23.94;42.68;95435.97;10300347;28;1894;-63
2023/06/12 14:34:04;;;;;;;;;;;;;;;23.96;42.59;95433.78;10302033;28;2046;-64
2023/06/12 14:39:04;;;;;;;;;;;;;;;23.96;42.44;95417.91;10303597;28;1867;-64
2023/06/12 14:44:04;;;;;;;;;;;;;;;23.96;42.58;95412.63;10308410;28;1968;-63
2023/06/12 14:49:04;;;;;;;;;;;;;;;23.98;42.58;95420.25;10306198;28;1907;-63
2023/06/12 14:54:05;;;;;;;;;;;;;;;23.99;42.69;95422.59;10308837;28;1989;-63
2023/06/12 14:59:05;;;;;;;;;;;;;;;23.98;42.88;95410.44;10304721;28;1895;-63
2023/06/12 15:04:06;;;;;;;;;;;;;;;23.98;42.86;95409.66;10308310;28;1907;-63
2023/06/12 15:09:06;;;;;;;;;;;;;;;23.99;42.91;95411.22;10301135;28;1912;-64
2023/06/12 15:14:06;;;;;;;;;;;;;;;24.01;42.84;95401.88;10306574;28;2330;-63
2023/06/12 15:19:06;;;;;;;;;;;;;;;24.02;42.79;95415.91;10314059;28;1956;-63
2023/06/12 15:24:07;;;;;;;;;;;;;;;24.01;43.20;95407.19;10311395;28;1882;-63
2023/06/12 15:29:07;;;;;;;;;;;;;;;24.02;43.32;95403.47;10306467;28;2087;-59
2023/06/12 15:34:07;;;;;;;;;;;;;;;24.02;43.18;95400.81;10303968;28;1943;-65
2023/06/12 15:39:09;;;;;;;;;;;;;;;24.01;43.19;95401.88;10305906;28;1887;-64
2023/06/12 15:44:09;;;;;;;;;;;;;;;24.03;43.39;95407.69;10285225;28;4377;-63
2023/06/12 15:49:09;;;;;;;;;;;;;;;24.02;43.29;95403.47;10304695;28;1886;-61
2023/06/12 15:54:10;;;;;;;;;;;;;;;24.03;43.15;95405.03;10293276;28;1867;-64
2023/06/12 15:59:11;;;;;;;;;;;;;;;24.03;43.45;95397.09;10293085;28;1876;-66
2023/06/12 16:04:11;;;;;;;;;;;;;;;24.02;43.40;95395.53;10292137;28;1912;-68
2023/06/12 16:09:11;;;;;;;;;;;;;;;24.03;43.24;95397.09;10291632;28;2453;-65
2023/06/12 16:14:11;;;;;;;;;;;;;;;24.04;43.37;95393.38;10294016;28;1932;-64
2023/06/12 16:19:12;;;;;;;;;;;;;;;24.04;43.28;95395.25;10291293;28;1809;-64
2023/06/12 16:24:12;;;;;;;;;;;;;;;24.03;43.21;95399.75;10287000;28;1981;-63
2023/06/12 16:29:12;;;;;;;;;;;;;;;24.04;43.32;95401.31;10272329;28;1900;-64
2023/06/12 16:34:13;;;;;;;;;;;;;;;24.04;43.66;95395.25;10288667;28;1985;-62
2023/06/12 16:39:13;;;;;;;;;;;;;;;24.05;43.36;95396.81;10292005;28;1850;-61
2023/06/12 16:44:14;;;;;;;;;;;;;;;24.03;43.19;95402.41;10291146;28;4414;-64
2023/06/12 16:49:14;;;;;;;;;;;;;;;24.05;43.51;95400.22;10295157;28;1866;-63
2023/06/12 16:54:14;;;;;;;;;;;;;;;24.07;43.24;95397.28;10289535;28;1889;-63
2023/06/12 16:59:14;;;;;;;;;;;;;;;24.05;43.42;95400.22;10288967;28;1899;-62
2023/06/12 17:04:15;;;;;;;;;;;;;;;24.07;43.22;95397.28;10287716;28;2155;-64
2023/06/12 17:09:15;;;;;;;;;;;;;;;24.07;43.41;95398.06;10293580;28;1895;-64
2023/06/12 17:14:15;;;;;;;;;;;;;;;24.07;43.07;95392.75;10296917;28;1917;-64
2023/06/12 17:19:16;;;;;;;;;;;;;;;24.08;43.16;95396.97;10305016;28;1895;-67
2023/06/12 17:24:16;;;;;;;;;;;;;;;24.07;43.38;95397.28;10312091;28;1910;-67
2023/06/12 17:29:16;;;;;;;;;;;;;;;24.07;43.29;95398.06;10308982;28;1851;-67
2023/06/12 17:34:17;;;;;;;;;;;;;;;24.07;43.15;95402.59;10305121;28;1908;-67
2023/06/12 17:39:17;;;;;;;;;;;;;;;24.06;43.38;95401.81;10307473;28;2099;-67
2023/06/12 17:44:17;;;;;;;;;;;;;;;24.05;43.15;95402.88;10311656;28;4539;-67
2023/06/12 17:49:18;;;;;;;;;;;;;;;24.05;43.08;95399.47;10301006;28;1993;-67
2023/06/12 17:54:18;;;;;;;;;;;;;;;24.05;43.18;95400.22;10300650;28;1922;-66
2023/06/12 17:59:18;;;;;;;;;;;;;;;24.02;42.03;95407.97;10300153;28;1920;-67
2023/06/12 18:04:19;;;;;;;;;;;;;;;23.96;41.05;95417.91;10293461;28;2264;-68
2023/06/12 18:09:19;;;;;;;;;;;;;;;23.89;40.12;95400.88;10306080;28;1985;-67
2023/06/12 18:14:19;;;;;;;;;;;;;;;23.80;39.15;95410.66;10302673;28;1918;-67
2023/06/12 18:19:19;;;;;;;;;;;;;;;23.75;38.69;95416.03;10303856;28;1886;-67
2023/06/12 18:24:20;;;;;;;;;;;;;;;23.72;38.88;95419.31;10300808;28;1979;-67
2023/06/12 18:29:20;;;;;;;;;;;;;;;23.75;40.16;95413.41;10307270;28;1917;-67
2023/06/12 18:34:21;;;;;;;;;;;;;;;23.77;40.57;95409.38;10304685;28;1983;-68
2023/06/12 18:39:21;;;;;;;;;;;;;;;23.79;40.71;95417.78;10299988;28;1949;-68
2023/06/12 18:44:21;;;;;;;;;;;;;;;23.81;40.70;95420.13;10303495;28;4645;-68
2023/06/12 18:49:21;;;;;;;;;;;;;;;23.82;40.92;95416.41;10306163;28;1897;-67
2023/06/12 18:54:22;;;;;;;;;;;;;;;23.82;40.68;95422.47;10301571;28;2257;-68
2023/06/12 18:59:23;;;;;;;;;;;;;;;23.82;40.48;95422.47;10301964;28;2332;-67
2023/06/12 19:04:23;;;;;;;;;;;;;;;23.82;40.41;95430.41;10307414;28;1957;-67
2023/06/12 19:09:23;;;;;;;;;;;;;;;23.84;40.22;95433.56;10300541;28;1970;-67
2023/06/12 19:14:24;;;;;;;;;;;;;;;23.83;40.15;95433.84;10303122;28;1898;-67
2023/06/12 19:19:24;;;;;;;;;;;;;;;23.83;40.26;95434.63;10300463;28;2117;-67
2023/06/12 19:24:25;;;;;;;;;;;;;;;23.83;40.08;95442.56;10302041;28;1954;-67
2023/06/12 19:29:25;;;;;;;;;;;;;;;23.85;40.22;95456.28;10292430;28;2003;-67
2023/06/12 19:34:25;;;;;;;;;;;;;;;23.86;40.23;95449.13;10301811;28;1909;-68
2023/06/12 19:39:26;;;;;;;;;;;;;;;23.85;40.14;95453.66;10312218;28;1949;-67
2023/06/12 19:44:26;;;;;;;;;;;;;;;23.83;40.02;95450.53;10303986;28;4491;-67
2023/06/12 19:49:26;;;;;;;;;;;;;;;23.82;40.32;95454.22;10298227;28;2007;-65
2023/06/12 19:54:27;;;;;;;;;;;;;;;23.82;39.88;95464.06;10297110;28;2218;-64
2023/06/12 19:59:27;;;;;;;;;;;;;;;23.82;40.14;95470.13;10299059;28;1929;-63
2023/06/12 20:04:27;;;;;;;;;;;;;;;23.84;40.23;95469.84;10287037;28;1946;-63
2023/06/12 20:09:28;;;;;;;;;;;;;;;23.83;40.22;95461.09;10295325;28;1909;-63
2023/06/12 20:14:28;;;;;;;;;;;;;;;23.86;40.41;95473.75;10297222;28;1904;-67
2023/06/12 20:19:28;;;;;;;;;;;;;;;23.87;40.77;95464.72;10298470;28;1883;-67
2023/06/12 20:24:33;;;;;;;;;;;;;;;23.88;41.20;95468.94;10300733;28;1919;-66
2023/06/12 20:29:37;;;;;;;;;;;;;;;23.91;41.49;95468.31;10303731;28;2105;-66
2023/06/12 20:34:37;;;;;;;;;;;;;;;23.94;42.11;95469.59;10298774;28;1849;-66
2023/06/12 20:39:37;;;;;;;;;;;;;;;23.95;42.33;95464.00;10299810;28;1870;-65
2023/06/12 20:44:38;;;;;;;;;;;;;;;23.95;42.38;95460.56;10299664;28;1948;-66
2023/06/12 20:49:38;;;;;;;;;;;;;;;23.96;42.32;95457.63;10307100;28;2130;-66
2023/06/12 20:54:38;;;;;;;;;;;;;;;23.97;42.53;95453.88;10307067;28;2257;-66
2023/06/12 20:59:38;;;;;;;;;;;;;;;23.97;42.40;95443.28;10308487;28;1913;-66
2023/06/12 21:04:39;;;;;;;;;;;;;;;23.98;42.65;95452.81;10309542;28;1933;-67
2023/06/12 21:09:40;;;;;;;;;;;;;;;23.98;42.59;95452.81;10312033;28;1965;-66
2023/06/12 21:14:41;;;;;;;;;;;;;;;24.00;42.63;95452.50;10307098;28;1934;-66
2023/06/12 21:19:41;;;;;;;;;;;;;;;23.99;42.47;95449.06;10295783;28;2015;-66
2023/06/12 21:24:42;;;;;;;;;;;;;;;24.00;42.76;95455.94;10304806;28;1989;-66
2023/06/12 21:29:44;;;;;;;;;;;;;;;23.99;42.63;95459.66;10303525;28;2323;-66
2023/06/12 21:34:44;;;;;;;;;;;;;;;24.01;42.52;95456.69;10307703;28;1969;-66
2023/06/12 21:39:44;;;;;;;;;;;;;;;24.01;42.48;95454.03;10302922;28;4556;-66
2023/06/12 21:44:45;;;;;;;;;;;;;;;24.00;42.60;95455.16;10299044;28;1891;-66
2023/06/12 21:49:45;;;;;;;;;;;;;;;23.99;42.67;95462.31;10303608;28;2317;-66
2023/06/12 21:54:45;;;;;;;;;;;;;;;24.00;42.57;95455.16;10303900;28;2149;-66
2023/06/12 21:59:46;;;;;;;;;;;;;;;23.99;42.30;95454.34;10295507;28;1921;-66
2023/06/12 22:04:46;;;;;;;;;;;;;;;23.99;42.37;95449.06;10312781;28;1911;-66
2023/06/12 22:09:46;;;;;;;;;;;;;;;23.99;42.52;95438.47;10294891;28;1914;-65
2023/06/12 22:14:46;;;;;;;;;;;;;;;24.00;42.60;95449.84;10306778;28;1890;-66
2023/06/12 22:19:47;;;;;;;;;;;;;;;23.99;42.45;95451.72;10301344;28;2034;-66
2023/06/12 22:24:47;;;;;;;;;;;;;;;23.99;42.45;95446.41;10298575;28;2113;-66
2023/06/12 22:29:47;;;;;;;;;;;;;;;24.00;42.62;95444.56;10311315;28;1929;-66
2023/06/12 22:34:47;;;;;;;;;;;;;;;23.99;42.35;95442.97;10301029;28;1943;-67
2023/06/12 22:39:48;;;;;;;;;;;;;;;23.99;42.43;95446.41;10292965;28;4555;-66
2023/06/12 22:44:48;;;;;;;;;;;;;;;23.99;42.15;95443.75;10308676;28;2339;-66
2023/06/12 22:49:49;;;;;;;;;;;;;;;23.99;42.35;95441.13;10301186;28;1915;-65
2023/06/12 22:54:50;;;;;;;;;;;;;;;24.00;42.50;95436.63;10298341;28;1973;-65
2023/06/12 22:59:50;;;;;;;;;;;;;;;23.99;42.30;95433.19;10317250;28;1950;-66
2023/06/12 23:04:51;;;;;;;;;;;;;;;23.98;42.09;95426.34;10299758;28;1942;-65
2023/06/12 23:09:52;;;;;;;;;;;;;;;23.99;42.35;95433.19;10302154;28;1934;-66
2023/06/12 23:14:52;;;;;;;;;;;;;;;23.99;42.12;95429.75;10302468;28;1946;-66
2023/06/12 23:19:52;;;;;;;;;;;;;;;23.99;42.18;95437.69;10296843;28;2248;-66
2023/06/12 23:24:53;;;;;;;;;;;;;;;23.98;42.43;95423.69;10303623;28;1907;-66
2023/06/12 23:29:53;;;;;;;;;;;;;;;23.98;42.36;95425.53;10296456;28;2073;-66
2023/06/12 23:34:54;;;;;;;;;;;;;;;23.97;42.34;95419.47;10306818;28;1951;-66
2023/06/12 23:39:56;;;;;;;;;;;;;;;23.97;42.25;95416.81;10297437;28;4782;-65
2023/06/12 23:44:56;;;;;;;;;;;;;;;23.96;42.16;95415.25;10297552;28;2148;-66
2023/06/12 23:49:56;;;;;;;;;;;;;;;23.97;42.30;95421.31;10298725;28;1910;-66
2023/06/12 23:54:56;;;;;;;;;;;;;;;23.96;42.25;95417.91;10289471;28;2033;-66
2023/06/12 23:59:57;;;;;;;;;;;;;;;23.96;42.10;95417.91;10297262;28;1906;-66
